createdAt,value
2023-05-08T00:00:34.220Z,86.50
2023-05-08T00:03:01.087Z,87.30
2023-05-08T00:05:28.081Z,86.90
2023-05-08T00:08:01.167Z,86.20
2023-05-08T00:10:29.196Z,86.80
2023-05-08T00:12:56.518Z,86.70
2023-05-08T00:15:23.382Z,86.80
2023-05-08T00:17:50.253Z,87.50
2023-05-08T00:20:17.211Z,87.60
2023-05-08T00:22:44.209Z,88.40
2023-05-08T00:25:11.032Z,89.10
2023-05-08T00:27:37.920Z,89.30
2023-05-08T00:30:06.222Z,89.20
2023-05-08T00:32:33.127Z,89.00
2023-05-08T00:34:59.895Z,89.10
2023-05-08T00:37:26.784Z,89.60
2023-05-08T00:39:53.574Z,89.20
2023-05-08T00:42:20.477Z,89.30
2023-05-08T00:44:47.952Z,88.70
2023-05-08T00:47:14.963Z,88.70
2023-05-08T00:49:42.747Z,88.90
2023-05-08T00:52:10.409Z,88.70
2023-05-08T00:54:38.819Z,89.30
2023-05-08T00:57:08.793Z,88.90
2023-05-08T00:59:37.009Z,89.10
2023-05-08T01:02:05.125Z,89.50
2023-05-08T01:04:33.434Z,89.30
2023-05-08T01:07:02.077Z,89.80
2023-05-08T01:09:28.938Z,89.10
2023-05-08T01:12:13.772Z,89.80
2023-05-08T01:14:52.035Z,89.40
2023-05-08T01:17:39.016Z,89.70
2023-05-08T01:20:09.052Z,89.60
2023-05-08T01:23:11.995Z,89.90
2023-05-08T01:26:00.478Z,89.80
2023-05-08T01:28:51.707Z,90.30
2023-05-08T01:31:43.127Z,90.20
2023-05-08T01:34:23.779Z,90.90
2023-05-08T01:36:53.043Z,90.40
2023-05-08T01:39:44.075Z,89.80
2023-05-08T01:42:32.715Z,90.90
2023-05-08T01:45:10.788Z,91.10
2023-05-08T01:47:38.796Z,91.60
2023-05-08T01:50:16.374Z,92.30
2023-05-08T01:52:46.867Z,93.10
2023-05-08T01:55:20.190Z,92.80
2023-05-08T01:57:53.298Z,92.90
2023-05-08T02:00:22.959Z,93.40
2023-05-08T02:02:54.509Z,93.30
2023-05-08T02:05:23.613Z,93.00
2023-05-08T02:07:52.058Z,92.90
2023-05-08T02:10:20.595Z,93.10
2023-05-08T02:12:48.722Z,93.20
2023-05-08T02:15:17.443Z,93.50
2023-05-08T02:17:47.372Z,93.40
2023-05-08T02:20:15.573Z,93.50
2023-05-08T02:22:44.932Z,93.70
2023-05-08T02:25:14.664Z,93.40
2023-05-08T02:27:46.077Z,93.80
2023-05-08T02:30:15.691Z,94.20
2023-05-08T02:32:48.081Z,94.20
2023-05-08T02:35:20.340Z,93.80
2023-05-08T02:37:52.625Z,93.90
2023-05-08T02:40:24.136Z,94.30
2023-05-08T02:42:51.176Z,94.20
2023-05-08T02:45:18.750Z,94.00
2023-05-08T02:48:02.469Z,94.00
2023-05-08T02:50:43.028Z,94.10
2023-05-08T02:53:16.116Z,94.20
2023-05-08T02:55:52.963Z,94.80
2023-05-08T02:58:25.037Z,94.80
2023-05-08T03:01:07.600Z,94.90
2023-05-08T03:03:46.507Z,94.90
2023-05-08T03:06:18.408Z,95.00
2023-05-08T03:08:47.135Z,95.20
2023-05-08T03:11:21.731Z,95.80
2023-05-08T03:13:49.795Z,95.70
2023-05-08T03:16:24.436Z,95.80
2023-05-08T03:19:00.055Z,95.80
2023-05-08T03:21:29.424Z,96.00
2023-05-08T03:23:59.540Z,96.20
2023-05-08T03:26:26.697Z,96.00
2023-05-08T03:28:54.403Z,96.30
2023-05-08T03:31:23.568Z,96.20
2023-05-08T03:33:55.016Z,96.00
2023-05-08T03:36:22.561Z,96.20
2023-05-08T03:38:49.512Z,96.20
2023-05-08T03:41:17.760Z,96.50
2023-05-08T03:43:45.513Z,96.40
2023-05-08T03:46:13.314Z,96.20
2023-05-08T03:48:41.330Z,96.50
2023-05-08T03:51:08.180Z,96.80
2023-05-08T03:53:35.697Z,96.80
2023-05-08T03:56:02.850Z,97.40
2023-05-08T03:58:48.699Z,96.70
2023-05-08T04:01:21.354Z,97.20
2023-05-08T04:04:02.960Z,96.80
2023-05-08T04:06:48.757Z,96.30
2023-05-08T04:09:31.492Z,96.30
2023-05-08T04:12:05.867Z,96.50
2023-05-08T04:14:45.422Z,95.80
2023-05-08T04:17:16.205Z,95.70
2023-05-08T04:19:47.171Z,95.40
2023-05-08T04:22:17.028Z,95.30
2023-05-08T04:24:47.567Z,95.10
2023-05-08T04:27:15.298Z,95.00
2023-05-08T04:29:42.506Z,94.80
2023-05-08T04:32:10.639Z,94.60
2023-05-08T04:34:38.396Z,94.60
2023-05-08T04:37:07.881Z,94.90
2023-05-08T04:39:34.803Z,94.70
2023-05-08T04:42:03.645Z,94.00
2023-05-08T04:44:30.507Z,93.90
2023-05-08T04:46:57.399Z,94.10
2023-05-08T04:49:24.218Z,93.00
2023-05-08T04:51:51.127Z,92.80
2023-05-08T04:54:18.062Z,92.40
2023-05-08T04:56:44.918Z,92.60
2023-05-08T04:59:15.987Z,92.10
2023-05-08T05:01:45.721Z,92.50
2023-05-08T05:04:15.630Z,91.40
2023-05-08T05:06:42.573Z,90.30
2023-05-08T05:09:09.538Z,90.00
2023-05-08T05:11:36.471Z,89.60
2023-05-08T05:14:03.309Z,89.30
2023-05-08T05:16:30.119Z,87.50
2023-05-08T05:18:56.892Z,87.70
2023-05-08T05:21:23.733Z,87.20
2023-05-08T05:23:50.551Z,86.20
2023-05-08T05:26:17.537Z,86.30
2023-05-08T05:28:44.325Z,85.30
2023-05-08T05:31:11.153Z,85.00
2023-05-08T05:33:38.257Z,85.50
2023-05-08T05:36:05.387Z,82.80
2023-05-08T05:38:32.351Z,84.20
2023-05-08T05:40:59.156Z,82.60
2023-05-08T05:43:25.991Z,82.10
2023-05-08T05:45:52.831Z,81.80
2023-05-08T05:48:19.634Z,82.10
2023-05-08T05:50:46.494Z,81.80
2023-05-08T05:53:13.504Z,80.90
2023-05-08T05:55:41.221Z,80.00
2023-05-08T05:58:07.958Z,79.50
2023-05-08T06:00:34.819Z,78.40
2023-05-08T06:03:02.957Z,77.70
2023-05-08T06:05:31.146Z,78.70
2023-05-08T06:07:58.199Z,78.50
2023-05-08T06:10:25.243Z,78.00
2023-05-08T06:12:51.988Z,76.90
2023-05-08T06:15:18.943Z,73.90
2023-05-08T06:17:45.765Z,71.50
2023-05-08T06:20:13.116Z,72.60
2023-05-08T06:22:41.350Z,71.10
2023-05-08T06:25:09.736Z,68.90
2023-05-08T06:27:36.870Z,67.20
2023-05-08T06:30:07.846Z,66.50
2023-05-08T06:32:34.681Z,64.80
2023-05-08T06:35:01.620Z,62.10
2023-05-08T06:37:28.405Z,60.70
2023-05-08T06:40:10.184Z,58.40
2023-05-08T06:42:38.641Z,56.80
2023-05-08T06:45:06.030Z,53.60
2023-05-08T06:47:33.087Z,54.70
2023-05-08T06:50:00.776Z,53.60
2023-05-08T06:52:27.575Z,51.70
2023-05-08T06:54:54.676Z,50.50
2023-05-08T06:57:21.572Z,49.80
2023-05-08T06:59:48.346Z,48.90
2023-05-08T07:02:16.367Z,49.00
2023-05-08T07:04:44.555Z,48.10
2023-05-08T07:07:12.778Z,46.70
2023-05-08T07:09:39.834Z,47.40
2023-05-08T07:12:07.012Z,44.20
2023-05-08T07:14:33.797Z,43.90
2023-05-08T07:17:06.850Z,42.50
2023-05-08T07:19:37.482Z,42.40
2023-05-08T07:22:05.364Z,43.30
2023-05-08T07:24:33.448Z,42.20
2023-05-08T07:27:00.257Z,43.40
2023-05-08T07:29:27.386Z,43.10
2023-05-08T07:31:54.226Z,41.60
2023-05-08T07:34:21.433Z,40.80
2023-05-08T07:36:48.325Z,42.10
2023-05-08T07:39:15.711Z,41.40
2023-05-08T07:41:43.093Z,41.10
2023-05-08T07:44:09.967Z,40.50
2023-05-08T07:46:37.416Z,42.10
2023-05-08T07:49:04.283Z,40.50
2023-05-08T07:51:31.942Z,41.70
2023-05-08T07:53:58.767Z,41.70
2023-05-08T07:56:25.586Z,39.90
2023-05-08T07:58:52.400Z,39.40
2023-05-08T08:01:19.316Z,40.80
2023-05-08T08:03:46.843Z,40.20
2023-05-08T08:06:13.996Z,40.30
2023-05-08T08:08:41.111Z,39.50
2023-05-08T08:11:08.118Z,39.10
2023-05-08T08:13:34.955Z,38.60
2023-05-08T08:16:04.128Z,39.30
2023-05-08T08:18:34.751Z,40.10
2023-05-08T08:21:01.740Z,40.10
2023-05-08T08:23:28.672Z,36.90
2023-05-08T08:25:55.626Z,38.10
2023-05-08T08:28:22.614Z,37.90
2023-05-08T08:30:49.574Z,38.40
2023-05-08T08:33:18.789Z,38.60
2023-05-08T08:35:46.043Z,37.60
2023-05-08T08:38:12.975Z,37.00
2023-05-08T08:40:41.291Z,38.30
2023-05-08T08:43:09.134Z,35.30
2023-05-08T08:45:37.557Z,36.60
2023-05-08T08:48:05.293Z,36.40
2023-05-08T08:50:33.589Z,35.70
2023-05-08T08:53:25.791Z,36.30
2023-05-08T08:55:55.739Z,34.40
2023-05-08T08:58:36.544Z,35.00
2023-05-08T09:01:05.641Z,35.60
2023-05-08T09:03:32.799Z,33.90
2023-05-08T09:06:01.465Z,34.70
2023-05-08T09:08:28.732Z,35.00
2023-05-08T09:10:58.837Z,33.80
2023-05-08T09:13:26.210Z,34.90
2023-05-08T09:15:53.168Z,33.30
2023-05-08T09:18:20.119Z,33.90
2023-05-08T09:20:47.888Z,33.60
2023-05-08T09:23:17.441Z,33.60
2023-05-08T09:25:48.479Z,33.80
2023-05-08T09:28:23.088Z,34.20
2023-05-08T09:30:52.715Z,33.60
2023-05-08T09:33:20.664Z,32.90
2023-05-08T09:35:50.789Z,33.20
2023-05-08T09:38:37.567Z,33.60
2023-05-08T09:41:16.381Z,32.40
2023-05-08T09:43:44.706Z,33.20
2023-05-08T09:46:23.548Z,32.50
2023-05-08T09:48:51.618Z,31.40
2023-05-08T09:51:18.693Z,32.70
2023-05-08T09:53:45.766Z,31.80
2023-05-08T09:56:13.067Z,32.30
2023-05-08T09:58:44.240Z,31.80
2023-05-08T10:01:35.866Z,33.20
2023-05-08T10:04:05.551Z,33.70
2023-05-08T10:06:33.375Z,33.20
2023-05-08T10:09:14.649Z,33.60
2023-05-08T10:11:51.916Z,33.30
2023-05-08T10:14:19.853Z,33.20
2023-05-08T10:16:54.614Z,33.20
2023-05-08T10:19:28.314Z,32.10
2023-05-08T10:21:56.385Z,32.20
2023-05-08T10:24:35.074Z,31.70
2023-05-08T10:27:24.608Z,31.80
2023-05-08T10:29:54.588Z,31.50
2023-05-08T10:32:23.099Z,32.00
2023-05-08T10:34:56.844Z,31.00
2023-05-08T10:37:23.575Z,30.60
2023-05-08T10:39:52.022Z,31.10
2023-05-08T10:42:19.471Z,31.50
2023-05-08T10:44:46.996Z,30.80
2023-05-08T10:47:27.771Z,30.80
2023-05-08T10:50:16.245Z,30.10
2023-05-08T10:52:45.752Z,30.60
2023-05-08T10:55:31.694Z,30.00
2023-05-08T10:58:15.001Z,30.00
2023-05-08T11:00:54.056Z,30.10
2023-05-08T11:03:31.470Z,29.60
2023-05-08T11:06:00.856Z,30.70
2023-05-08T11:08:29.293Z,30.00
2023-05-08T11:11:02.157Z,30.60
2023-05-08T11:13:36.946Z,30.60
2023-05-08T11:16:06.952Z,30.40
2023-05-08T11:21:14.447Z,29.50
2023-05-08T11:23:41.195Z,30.80
2023-05-08T11:26:16.930Z,30.10
2023-05-08T11:28:57.308Z,30.20
2023-05-08T11:31:24.313Z,28.70
2023-05-08T11:33:51.311Z,30.20
2023-05-08T11:36:24.533Z,30.40
2023-05-08T11:39:12.762Z,30.20
2023-05-08T11:41:39.677Z,28.70
2023-05-08T11:44:16.810Z,29.40
2023-05-08T11:46:48.044Z,29.70
2023-05-08T11:49:17.276Z,31.10
2023-05-08T11:51:57.926Z,30.60
2023-05-08T11:54:26.260Z,30.20
2023-05-08T11:56:56.834Z,27.40
2023-05-08T11:59:23.655Z,29.90
2023-05-08T12:04:21.276Z,31.20
2023-05-08T12:06:49.318Z,30.80
2023-05-08T12:09:18.363Z,30.10
2023-05-08T12:11:45.564Z,30.00
2023-05-08T12:14:14.966Z,28.90
2023-05-08T12:16:41.810Z,31.20
2023-05-08T12:19:13.316Z,30.00
2023-05-08T12:21:48.619Z,29.20
2023-05-08T12:24:22.894Z,30.40
2023-05-08T12:26:50.521Z,31.00
2023-05-08T12:29:19.454Z,28.70
2023-05-08T12:31:47.448Z,30.20
2023-05-08T12:34:14.427Z,29.60
2023-05-08T12:36:41.266Z,30.00
2023-05-08T12:39:18.834Z,31.00
2023-05-08T12:41:52.906Z,30.70
2023-05-08T12:44:22.129Z,30.90
2023-05-08T12:46:53.665Z,29.60
2023-05-08T12:49:28.884Z,29.80
2023-05-08T12:52:06.764Z,29.50
2023-05-08T12:54:34.593Z,31.60
2023-05-08T12:57:01.621Z,30.80
2023-05-08T12:59:29.870Z,30.20
2023-05-08T13:01:56.850Z,30.20
2023-05-08T13:04:23.727Z,31.70
2023-05-08T13:06:57.815Z,31.20
2023-05-08T13:09:24.623Z,30.70
2023-05-08T13:11:51.395Z,29.80
2023-05-08T13:14:18.183Z,30.80
2023-05-08T13:16:46.256Z,30.30
2023-05-08T13:19:14.674Z,30.70
2023-05-08T13:21:41.852Z,31.30
2023-05-08T13:24:09.191Z,30.60
2023-05-08T13:26:36.064Z,31.00
2023-05-08T13:29:02.830Z,31.10
2023-05-08T13:31:29.673Z,32.40
2023-05-08T13:33:56.571Z,32.30
2023-05-08T13:36:24.380Z,30.30
2023-05-08T13:38:54.895Z,32.00
2023-05-08T13:41:22.106Z,31.50
2023-05-08T13:43:48.974Z,31.80
2023-05-08T13:46:15.738Z,32.30
2023-05-08T13:48:42.572Z,31.30
2023-05-08T13:51:09.333Z,31.20
2023-05-08T13:53:36.187Z,31.70
2023-05-08T13:56:02.975Z,32.20
2023-05-08T13:58:29.777Z,30.30
2023-05-08T14:00:56.581Z,31.30
2023-05-08T14:03:23.559Z,32.90
2023-05-08T14:05:50.676Z,31.70
2023-05-08T14:08:17.445Z,31.40
2023-05-08T14:10:44.155Z,31.70
2023-05-08T14:13:11.138Z,31.50
2023-05-08T14:15:38.141Z,32.00
2023-05-08T14:18:05.047Z,31.40
2023-05-08T14:20:31.944Z,31.40
2023-05-08T14:23:00.180Z,30.80
2023-05-08T14:25:27.445Z,31.40
2023-05-08T14:27:54.390Z,31.30
2023-05-08T14:30:21.232Z,31.20
2023-05-08T14:32:47.982Z,31.20
2023-05-08T14:35:14.953Z,31.50
2023-05-08T14:37:41.855Z,31.70
2023-05-08T14:40:09.224Z,31.00
2023-05-08T14:42:36.497Z,32.20
2023-05-08T14:45:03.516Z,30.70
2023-05-08T14:47:32.328Z,31.50
2023-05-08T14:49:59.141Z,31.70
2023-05-08T14:52:26.055Z,29.30
2023-05-08T14:57:39.894Z,30.90
2023-05-08T15:00:07.608Z,30.20
2023-05-08T15:02:34.649Z,30.50
2023-05-08T15:05:04.479Z,31.50
2023-05-08T15:07:35.329Z,30.30
2023-05-08T15:10:02.653Z,29.80
2023-05-08T15:12:29.601Z,31.60
2023-05-08T15:14:56.508Z,31.20
2023-05-08T15:17:23.355Z,30.30
2023-05-08T15:19:50.248Z,31.60
2023-05-08T15:22:17.896Z,31.40
2023-05-08T15:24:44.683Z,30.80
2023-05-08T15:27:11.794Z,29.30
2023-05-08T15:29:41.363Z,30.70
2023-05-08T15:32:08.282Z,30.70
2023-05-08T15:34:35.387Z,30.60
2023-05-08T15:37:02.226Z,30.60
2023-05-08T15:39:29.469Z,30.80
2023-05-08T15:41:56.344Z,30.80
2023-05-08T15:44:24.860Z,31.80
2023-05-08T15:46:53.435Z,31.10
2023-05-08T15:49:25.661Z,30.80
2023-05-08T15:51:53.179Z,30.80
2023-05-08T15:54:19.946Z,31.40
2023-05-08T15:56:47.112Z,31.60
2023-05-08T15:59:13.958Z,30.30
2023-05-08T16:01:41.852Z,31.50
2023-05-08T16:04:08.997Z,32.40
2023-05-08T16:06:35.788Z,31.60
2023-05-08T16:09:03.003Z,31.20
2023-05-08T16:11:32.858Z,31.20
2023-05-08T16:13:59.778Z,32.50
2023-05-08T16:16:27.451Z,30.80
2023-05-08T16:18:54.551Z,32.20
2023-05-08T16:21:25.679Z,32.10
2023-05-08T16:23:53.371Z,32.30
2023-05-08T16:26:20.257Z,32.90
2023-05-08T16:28:50.036Z,33.10
2023-05-08T16:31:17.100Z,32.30
2023-05-08T16:33:44.162Z,32.60
2023-05-08T16:36:11.131Z,33.20
2023-05-08T16:38:37.887Z,32.40
2023-05-08T16:41:06.042Z,32.90
2023-05-08T16:43:33.039Z,32.70
2023-05-08T16:45:59.852Z,33.10
2023-05-08T16:48:27.952Z,31.50
2023-05-08T16:50:55.742Z,32.70
2023-05-08T16:53:22.831Z,33.30
2023-05-08T16:55:49.622Z,32.70
2023-05-08T16:58:16.495Z,33.20
2023-05-08T17:00:43.277Z,32.70
2023-05-08T17:03:10.226Z,32.60
2023-05-08T17:05:37.618Z,32.80
2023-05-08T17:08:04.608Z,33.30
2023-05-08T17:10:33.413Z,33.30
2023-05-08T17:13:00.206Z,33.90
2023-05-08T17:15:27.310Z,33.40
2023-05-08T17:17:55.955Z,34.10
2023-05-08T17:20:22.817Z,33.90
2023-05-08T17:22:49.624Z,34.20
2023-05-08T17:25:16.503Z,34.60
2023-05-08T17:27:43.339Z,35.70
2023-05-08T17:30:12.253Z,36.00
2023-05-08T17:32:39.436Z,35.50
2023-05-08T17:35:06.841Z,36.10
2023-05-08T17:37:33.639Z,36.60
2023-05-08T17:40:00.468Z,35.90
2023-05-08T17:42:27.347Z,36.00
2023-05-08T17:44:54.117Z,36.30
2023-05-08T17:47:20.922Z,36.70
2023-05-08T17:49:47.698Z,36.70
2023-05-08T17:52:14.576Z,36.00
2023-05-08T17:54:41.481Z,37.30
2023-05-08T17:57:08.280Z,38.80
2023-05-08T17:59:35.000Z,38.60
2023-05-08T18:02:01.991Z,39.80
2023-05-08T18:04:29.000Z,40.80
2023-05-08T18:06:55.859Z,40.10
2023-05-08T18:09:22.778Z,41.10
2023-05-08T18:11:49.618Z,40.10
2023-05-08T18:14:16.453Z,40.60
2023-05-08T18:16:43.263Z,40.20
2023-05-08T18:19:10.153Z,41.00
2023-05-08T18:21:36.913Z,42.10
2023-05-08T18:24:03.926Z,41.40
2023-05-08T18:26:30.730Z,41.60
2023-05-08T18:28:57.660Z,41.20
2023-05-08T18:31:24.552Z,42.30
2023-05-08T18:33:51.436Z,42.00
2023-05-08T18:36:18.238Z,41.50
2023-05-08T18:38:45.035Z,41.70
2023-05-08T18:41:11.877Z,42.10
2023-05-08T18:43:38.764Z,42.70
2023-05-08T18:46:12.048Z,42.80
2023-05-08T18:48:39.902Z,43.20
2023-05-08T18:51:07.092Z,42.80
2023-05-08T18:53:38.171Z,43.70
2023-05-08T18:56:05.745Z,43.90
2023-05-08T18:58:32.495Z,43.40
2023-05-08T19:00:59.599Z,43.50
2023-05-08T19:03:26.832Z,44.10
2023-05-08T19:05:55.162Z,45.00
2023-05-08T19:08:21.944Z,44.60
2023-05-08T19:10:48.861Z,46.40
2023-05-08T19:13:16.338Z,45.20
2023-05-08T19:15:43.229Z,45.30
2023-05-08T19:18:10.284Z,46.00
2023-05-08T19:20:37.320Z,45.50
2023-05-08T19:23:04.221Z,45.90
2023-05-08T19:25:31.082Z,45.30
2023-05-08T19:27:58.753Z,46.90
2023-05-08T19:30:25.639Z,46.60
2023-05-08T19:32:52.479Z,47.00
2023-05-08T19:35:19.306Z,46.80
2023-05-08T19:37:46.418Z,47.20
2023-05-08T19:40:14.000Z,47.80
2023-05-08T19:42:42.002Z,47.60
2023-05-08T19:45:09.667Z,48.10
2023-05-08T19:47:36.486Z,48.60
2023-05-08T19:50:03.586Z,48.10
2023-05-08T19:52:30.371Z,48.20
2023-05-08T19:54:57.440Z,47.80
2023-05-08T19:57:24.330Z,49.10
2023-05-08T19:59:51.136Z,48.80
2023-05-08T20:02:17.931Z,48.60
2023-05-08T20:05:04.350Z,49.90
2023-05-08T20:07:31.716Z,49.20
2023-05-08T20:09:58.912Z,49.80
2023-05-08T20:12:25.745Z,50.40
2023-05-08T20:14:53.588Z,50.50
2023-05-08T20:17:20.551Z,50.10
2023-05-08T20:19:47.352Z,50.50
2023-05-08T20:22:14.238Z,49.50
2023-05-08T20:24:41.042Z,49.20
2023-05-08T20:27:07.854Z,50.80
2023-05-08T20:29:34.671Z,49.20
2023-05-08T20:32:02.333Z,49.20
2023-05-08T20:34:29.833Z,49.80
2023-05-08T20:36:59.457Z,49.00
2023-05-08T20:39:26.488Z,49.40
2023-05-08T20:41:53.277Z,49.40
2023-05-08T20:44:19.972Z,49.70
2023-05-08T20:46:46.743Z,50.00
2023-05-08T20:49:13.826Z,49.70
2023-05-08T20:51:40.752Z,49.80
2023-05-08T20:54:07.523Z,50.40
2023-05-08T20:56:35.781Z,50.50
2023-05-08T20:59:02.787Z,50.60
2023-05-08T21:01:29.614Z,50.40
2023-05-08T21:03:56.628Z,49.90
2023-05-08T21:06:23.413Z,49.20
2023-05-08T21:08:50.446Z,50.90
2023-05-08T21:11:17.316Z,50.00
2023-05-08T21:13:44.550Z,50.70
2023-05-08T21:16:11.817Z,50.90
2023-05-08T21:18:38.771Z,50.50
2023-05-08T21:21:14.825Z,51.10
2023-05-08T21:23:41.644Z,51.50
2023-05-08T21:26:08.457Z,51.20
2023-05-08T21:28:35.291Z,51.50
2023-05-08T21:31:02.161Z,51.30
2023-05-08T21:33:29.038Z,52.00
2023-05-08T21:35:55.997Z,52.80
2023-05-08T21:38:22.803Z,52.50
2023-05-08T21:40:49.930Z,52.60
2023-05-08T21:43:16.742Z,53.00
2023-05-08T21:45:43.549Z,53.30
2023-05-08T21:48:10.315Z,53.30
2023-05-08T21:50:37.201Z,54.50
2023-05-08T21:53:04.305Z,53.70
2023-05-08T21:55:32.497Z,54.20
2023-05-08T21:57:59.388Z,54.10
2023-05-08T22:00:26.844Z,54.60
2023-05-08T22:02:53.739Z,54.60
2023-05-08T22:05:20.658Z,55.00
2023-05-08T22:07:47.603Z,55.30
2023-05-08T22:10:14.406Z,54.80
2023-05-08T22:12:41.392Z,55.10
2023-05-08T22:15:17.917Z,55.10
2023-05-08T22:17:45.192Z,56.00
2023-05-08T22:20:14.572Z,57.00
2023-05-08T22:22:41.971Z,56.30
2023-05-08T22:25:09.094Z,56.70
2023-05-08T22:27:35.992Z,57.40
2023-05-08T22:30:03.109Z,56.90
2023-05-08T22:32:29.898Z,57.30
2023-05-08T22:34:56.716Z,57.10
2023-05-08T22:37:23.615Z,57.70
2023-05-08T22:39:50.590Z,58.80
2023-05-08T22:42:17.723Z,58.00
2023-05-08T22:44:45.284Z,58.10
2023-05-08T22:47:13.361Z,58.50
2023-05-08T22:49:41.371Z,58.30
2023-05-08T22:52:09.329Z,59.30
2023-05-08T22:54:36.219Z,59.00
2023-05-08T22:57:03.062Z,59.60
2023-05-08T22:59:29.932Z,59.40
2023-05-08T23:01:56.675Z,60.00
2023-05-08T23:04:23.487Z,60.80
2023-05-08T23:06:50.654Z,60.90
2023-05-08T23:09:17.491Z,60.20
2023-05-08T23:11:44.414Z,61.20
2023-05-08T23:14:11.167Z,61.10
2023-05-08T23:16:38.087Z,60.70
2023-05-08T23:19:05.064Z,62.00
2023-05-08T23:21:32.172Z,62.10
2023-05-08T23:23:59.339Z,61.60
2023-05-08T23:26:26.119Z,61.80
2023-05-08T23:28:52.952Z,62.50
2023-05-08T23:31:19.761Z,62.10
2023-05-08T23:33:46.741Z,62.20
2023-05-08T23:36:13.602Z,63.00
2023-05-08T23:38:40.436Z,63.70
2023-05-08T23:41:07.866Z,62.80
2023-05-08T23:43:34.627Z,63.50
2023-05-08T23:46:01.431Z,63.40
2023-05-08T23:48:28.436Z,63.50
2023-05-08T23:50:55.254Z,63.60
2023-05-08T23:53:21.987Z,64.40
2023-05-08T23:55:52.476Z,64.20
2023-05-08T23:58:19.354Z,64.50
